Terminal Aerodrome Forecast
Issued by NWS

Current Version | Previous Version | Text Only | Print | Product List | Glossary On
Versions: 1 2 3 4 5 6 7 8 9 10 11 12 13 14 15 16 17 18 19
000
FTUS44 KSJT 240726 AAA
TAFJCT
TAF AMD
KJCT 240726Z 2407/2506 17018G28KT P6SM BKN025
     FM241000 19013G20KT P6SM VCTS BKN035CB
     FM241300 23011KT P6SM SCT050
     FM241600 25015G25KT P6SM SKC=

USA.gov is the U.S. government's official web portal to all federal, state and local government web resources and services.